Seanor, Pennsylvania
Current Conditions -  °F | °C
As of 12:54 AM on Monday 22 Dec 2014 (Local Time) from KJST Reporting Station
Clear Clear  
Wind Chill: 14°   Ceiling: Unl
Heat Index: 23°   Visibility: 10mi
Dew Point: 17°   Wind: 8mph
Humidity: 78%   Direction: 170°S
Pressure: 30.15"   Gusts: NA
Location:  40.21°N, 78.9°W
Report Text: KJST 220554Z AUTO 17007KT 10SM CLR M05/M08 A3015 RMK AO2 SLP240 T10501083 11039 21056 58010
Loading
Personal Weather Stations






























Interactive Weather Map New forecast layout! Learn more

10-Day Weather Forecast

Advertisements
Track Severe Weather on mobile